Time;durP1;ratioP1;P1;durP2;ratioP2;P2;SDS_P1;SDS_P2;PMS_P1;PMS_P2;Temp;Humidity;BMP_temperature;BMP_pressure;BME280_temperature;BME280_humidity;BME280_pressure;Samples;Min_cycle;Max_cycle;Signal;HPM_P1;HPM_P2
2021/08/08 00:02:01;;;;;;;;;;;;;;;;;;;;;
2021/08/08 00:04:29;;;;;;;2.83;2.60;;;18.30;91.40;;;;;;4996284;28;20046;-95
2021/08/08 00:06:57;;;;;;;2.53;2.33;;;18.30;91.60;;;;;;4979336;28;20038;-95
2021/08/08 00:09:28;;;;;;;3.47;3.17;;;18.30;91.90;;;;;;4975543;28;20065;-94
2021/08/08 00:12:24;;;;;;;;;;;;;;;;;;;;;
2021/08/08 00:14:56;;;;;;;3.13;2.92;;;18.20;92.10;;;;;;4977254;28;20477;-94
2021/08/08 00:17:29;;;;;;;3.42;3.13;;;18.20;92.10;;;;;;4976204;28;20125;-94
2021/08/08 00:19:57;;;;;;;3.72;3.10;;;18.20;92.10;;;;;;4976204;28;20046;-94
2021/08/08 00:22:28;;;;;;;3.60;3.30;;;18.20;92.10;;;;;;4968197;28;20234;-94
2021/08/08 00:24:57;;;;;;;3.95;3.40;;;18.10;92.20;;;;;;4961660;28;20055;-93
2021/08/08 00:27:25;;;;;;;3.40;3.03;;;18.10;92.20;;;;;;4966970;28;20073;-95
2021/08/08 00:30:06;;;;;;;3.10;2.90;;;18.10;92.20;;;;;;4975829;28;20039;-94
2021/08/08 00:32:41;;;;;;;3.47;3.13;;;18.10;92.30;;;;;;4969668;28;20058;-94
2021/08/08 00:35:10;;;;;;;3.88;3.22;;;18.00;92.50;;;;;;4975411;28;20042;-94
2021/08/08 00:37:48;;;;;;;2.90;2.70;;;18.00;92.50;;;;;;4968159;28;20122;-94
2021/08/08 00:40:15;;;;;;;3.00;2.72;;;18.00;92.50;;;;;;4967474;28;20047;-93
2021/08/08 00:42:55;;;;;;;3.15;2.75;;;18.00;92.50;;;;;;4975364;28;20043;-93
2021/08/08 00:45:24;;;;;;;3.22;2.92;;;18.00;92.60;;;;;;4964222;28;20028;-94
2021/08/08 00:47:50;;;;;;;2.95;2.65;;;18.00;92.70;;;;;;4964100;28;20042;-95
2021/08/08 00:50:18;;;;;;;3.20;2.90;;;18.00;92.70;;;;;;4967010;28;20031;-95
2021/08/08 00:52:47;;;;;;;2.88;2.63;;;18.00;92.70;;;;;;4967272;28;20062;-96
2021/08/08 00:55:18;;;;;;;2.63;2.42;;;18.00;92.70;;;;;;4967581;28;20093;-95
2021/08/08 00:57:43;;;;;;;3.13;2.80;;;18.00;92.80;;;;;;4976964;28;20054;-95
2021/08/08 01:00:17;;;;;;;2.90;2.70;;;18.00;92.80;;;;;;4967298;28;20432;-94
2021/08/08 01:02:51;;;;;;;4.15;2.50;;;18.00;92.70;;;;;;4959894;28;20039;-95
2021/08/08 01:05:36;;;;;;;3.38;2.70;;;18.00;92.70;;;;;;4968176;28;20039;-94
2021/08/08 01:08:04;;;;;;;6.22;2.80;;;18.00;92.80;;;;;;4976870;28;20035;-93
2021/08/08 01:10:48;;;;;;;3.03;2.83;;;18.00;92.90;;;;;;4975833;28;20070;-92
2021/08/08 01:13:22;;;;;;;3.72;3.00;;;17.90;93.30;;;;;;4977636;28;20121;-93
2021/08/08 01:15:52;;;;;;;2.90;2.70;;;17.90;93.10;;;;;;4986354;28;20035;-92
2021/08/08 01:18:28;;;;;;;2.88;2.67;;;17.90;93.10;;;;;;4978318;28;20074;-95
2021/08/08 01:21:00;;;;;;;2.95;2.70;;;17.80;93.10;;;;;;4974550;28;20097;-95
2021/08/08 01:23:37;;;;;;;3.20;2.95;;;17.80;93.20;;;;;;4976346;28;20450;-95
2021/08/08 01:26:15;;;;;;;3.10;2.70;;;17.80;93.30;;;;;;4975746;28;20534;-95
2021/08/08 01:28:43;;;;;;;3.53;2.90;;;17.80;93.30;;;;;;4967347;28;20035;-95
2021/08/08 01:31:16;;;;;;;2.65;2.35;;;17.80;93.30;;;;;;4970261;28;20035;-95
2021/08/08 01:33:50;;;;;;;2.78;2.47;;;17.80;93.40;;;;;;4956904;28;20071;-95
2021/08/08 01:36:17;;;;;;;3.22;2.92;;;17.80;93.30;;;;;;4969406;28;20032;-95
2021/08/08 01:39:03;;;;;;;3.40;2.95;;;17.80;93.40;;;;;;4956172;28;20090;-95
2021/08/08 01:41:40;;;;;;;3.08;2.78;;;17.80;93.40;;;;;;4974906;28;20039;-95
2021/08/08 01:44:18;;;;;;;3.67;2.95;;;17.80;93.50;;;;;;4956247;28;20051;-95
2021/08/08 01:46:50;;;;;;;3.55;3.08;;;17.70;93.30;;;;;;4972800;28;20090;-95
2021/08/08 01:49:36;;;;;;;4.05;3.08;;;17.70;93.40;;;;;;4974356;28;20035;-95
2021/08/08 01:52:06;;;;;;;2.40;2.20;;;17.70;93.60;;;;;;4967328;28;20046;-93
2021/08/08 01:54:32;;;;;;;2.60;2.40;;;17.70;93.50;;;;;;4967453;28;20066;-95
2021/08/08 01:56:57;;;;;;;2.92;2.63;;;17.70;93.60;;;;;;4962465;28;20039;-95
2021/08/08 01:59:26;;;;;;;4.15;3.03;;;17.70;93.60;;;;;;4971993;28;20038;-95
2021/08/08 02:01:52;;;;;;;4.07;3.00;;;17.70;93.90;;;;;;4970687;28;20394;-95
2021/08/08 02:04:24;;;;;;;3.17;2.88;;;17.70;94.00;;;;;;4962892;28;20041;-94
2021/08/08 02:07:00;;;;;;;2.90;2.60;;;17.70;94.10;;;;;;4974259;28;20035;-95
2021/08/08 02:09:29;;;;;;;3.20;2.97;;;17.60;94.00;;;;;;4974255;28;20054;-96
2021/08/08 02:12:03;;;;;;;3.28;2.97;;;17.70;94.00;;;;;;4974309;28;20047;-94
2021/08/08 02:14:32;;;;;;;2.78;2.53;;;17.60;94.10;;;;;;4965197;28;20063;-95
2021/08/08 02:17:03;;;;;;;3.40;3.03;;;17.60;94.00;;;;;;4960709;28;20042;-94
2021/08/08 02:19:36;;;;;;;4.13;2.95;;;17.60;94.10;;;;;;4961508;28;20062;-94
2021/08/08 02:22:08;;;;;;;3.30;3.00;;;17.60;94.10;;;;;;4976129;28;20052;-95
2021/08/08 02:24:36;;;;;;;4.03;3.30;;;17.60;94.30;;;;;;4966108;28;20053;-95
2021/08/08 02:27:27;;;;;;;2.90;2.70;;;17.60;94.30;;;;;;4960217;28;20043;-95
2021/08/08 02:30:01;;;;;;;5.10;3.40;;;17.60;94.40;;;;;;4974264;28;20050;-93
2021/08/08 02:32:35;;;;;;;5.00;3.92;;;17.50;94.50;;;;;;4974084;28;20090;-95
2021/08/08 02:35:06;;;;;;;3.53;3.22;;;17.50;94.80;;;;;;4958678;28;20042;-95
2021/08/08 02:37:34;;;;;;;3.63;3.15;;;17.50;94.90;;;;;;4975861;28;20441;-95
2021/08/08 02:40:03;;;;;;;3.20;2.90;;;17.50;94.80;;;;;;4974126;28;20035;-94
2021/08/08 02:42:38;;;;;;;3.25;3.03;;;17.50;94.80;;;;;;4974367;28;20042;-94
2021/08/08 02:45:09;;;;;;;4.43;3.08;;;17.50;95.00;;;;;;4963221;28;20047;-94
2021/08/08 02:47:43;;;;;;;3.95;3.40;;;17.40;95.30;;;;;;4962831;28;20488;-93
2021/08/08 02:50:12;;;;;;;;;;;17.50;95.30;;;;;;4975708;28;20107;-94
2021/08/08 02:52:41;;;;;;;4.45;2.90;;;17.40;95.40;;;;;;4982372;28;19913;-94
2021/08/08 02:55:11;;;;;;;3.25;2.95;;;17.40;95.30;;;;;;4969749;28;20031;-94
2021/08/08 02:57:47;;;;;;;3.40;3.10;;;17.40;95.40;;;;;;4967621;28;20501;-92
2021/08/08 03:00:25;;;;;;;;;;;;;;;;;;;;;
2021/08/08 03:02:51;;;;;;;3.65;3.08;;;17.30;95.70;;;;;;4985035;28;20086;-91
2021/08/08 03:05:22;;;;;;;3.65;3.35;;;17.30;95.90;;;;;;4970932;28;20055;-91
2021/08/08 03:07:50;;;;;;;4.00;3.45;;;17.30;96.00;;;;;;4986505;28;20035;-92
2021/08/08 03:10:18;;;;;;;3.50;3.20;;;17.30;96.10;;;;;;4975395;28;20393;-95
2021/08/08 03:12:47;;;;;;;3.92;3.28;;;17.30;96.20;;;;;;4978077;28;20482;-96
2021/08/08 03:15:18;;;;;;;6.15;3.28;;;17.30;96.20;;;;;;4978586;28;20034;-95
2021/08/08 03:17:56;;;;;;;3.72;3.30;;;17.30;96.20;;;;;;4980187;28;20031;-93
2021/08/08 03:20:32;;;;;;;;;;;;;;;;;;;;;
2021/08/08 03:23:01;;;;;;;3.63;3.33;;;17.40;96.20;;;;;;4977846;28;20042;-95
2021/08/08 03:25:36;;;;;;;;;;;;;;;;;;;;;
2021/08/08 03:28:08;;;;;;;3.95;3.33;;;17.50;96.00;;;;;;4977858;28;20039;-94
2021/08/08 03:30:33;;;;;;;4.22;3.75;;;17.50;96.10;;;;;;4976567;28;20042;-95
2021/08/08 03:33:07;;;;;;;4.65;3.58;;;17.50;96.00;;;;;;4976030;28;20061;-95
2021/08/08 03:35:56;;;;;;;3.97;3.58;;;17.50;96.00;;;;;;4968285;28;20043;-94
2021/08/08 03:38:23;;;;;;;4.22;3.83;;;17.60;95.90;;;;;;4977403;28;20098;-94
2021/08/08 03:41:00;;;;;;;3.80;3.40;;;17.60;95.90;;;;;;4976923;28;20039;-94
2021/08/08 03:43:28;;;;;;;4.15;3.75;;;17.60;95.90;;;;;;4968707;28;20069;-95
2021/08/08 03:46:01;;;;;;;3.70;3.40;;;17.60;96.00;;;;;;4976763;28;20066;-94
2021/08/08 03:48:46;;;;;;;9.13;3.80;;;17.60;96.00;;;;;;4969582;28;20449;-95
2021/08/08 03:51:24;;;;;;;3.70;3.30;;;17.70;95.90;;;;;;4977357;28;20035;-94
2021/08/08 03:53:52;;;;;;;4.55;3.55;;;17.70;95.90;;;;;;4976697;28;20058;-93
2021/08/08 03:56:20;;;;;;;4.30;3.70;;;17.70;95.90;;;;;;4977144;28;20035;-92
2021/08/08 03:58:49;;;;;;;3.90;3.53;;;17.70;95.90;;;;;;4976566;28;20097;-93
2021/08/08 04:01:34;;;;;;;5.55;3.58;;;17.70;95.80;;;;;;4969540;28;20093;-93
2021/08/08 04:04:02;;;;;;;5.20;3.85;;;17.80;95.70;;;;;;4969586;28;20470;-92
2021/08/08 04:06:28;;;;;;;4.47;4.07;;;17.70;95.70;;;;;;4969909;28;20092;-93
2021/08/08 04:09:04;;;;;;;5.30;4.32;;;17.70;95.60;;;;;;4968384;28;20501;-94
2021/08/08 04:11:32;;;;;;;4.50;3.50;;;17.80;95.50;;;;;;4968547;28;20462;-94
2021/08/08 04:14:00;;;;;;;4.20;3.80;;;17.70;95.60;;;;;;4977262;28;20035;-94
2021/08/08 04:16:31;;;;;;;3.78;3.47;;;17.80;95.70;;;;;;4972750;28;20486;-94
2021/08/08 04:19:04;;;;;;;4.30;3.90;;;17.80;95.70;;;;;;4964956;28;20042;-95
2021/08/08 04:21:30;;;;;;;;;;;17.90;95.60;;;;;;4968675;28;20386;-95
2021/08/08 04:23:58;;;;;;;4.00;3.63;;;17.90;95.70;;;;;;4984174;28;19917;-95
2021/08/08 04:26:26;;;;;;;3.95;3.55;;;17.90;95.50;;;;;;4961625;28;20039;-95
2021/08/08 04:28:55;;;;;;;3.72;3.30;;;18.00;95.50;;;;;;4968125;28;20040;-94
2021/08/08 04:31:29;;;;;;;3.28;2.95;;;18.10;95.50;;;;;;4975667;28;20062;-95
2021/08/08 04:33:57;;;;;;;;;;;18.10;95.40;;;;;;4968250;28;20039;-96
2021/08/08 04:36:43;;;;;;;4.32;3.42;;;18.20;94.90;;;;;;4975796;28;20000;-95
2021/08/08 04:39:09;;;;;;;5.03;3.38;;;18.20;94.90;;;;;;4974872;28;20039;-94
2021/08/08 04:41:39;;;;;;;4.20;3.80;;;18.30;94.90;;;;;;4969398;28;20090;-95
2021/08/08 04:44:05;;;;;;;4.20;3.40;;;18.40;94.70;;;;;;4975480;28;20042;-94
2021/08/08 04:46:33;;;;;;;3.95;3.45;;;18.50;94.60;;;;;;4976915;28;20085;-95
2021/08/08 04:49:14;;;;;;;3.60;3.30;;;18.50;94.50;;;;;;4977700;28;20043;-92
2021/08/08 04:51:43;;;;;;;3.33;3.00;;;18.50;94.10;;;;;;4966515;28;20043;-92
2021/08/08 04:54:11;;;;;;;2.97;2.78;;;18.60;94.10;;;;;;4974203;28;20039;-93
2021/08/08 04:56:46;;;;;;;3.13;2.83;;;18.70;94.00;;;;;;4982209;28;20039;-91
2021/08/08 04:59:14;;;;;;;4.10;3.22;;;18.80;93.90;;;;;;4974202;28;20034;-93
2021/08/08 05:01:40;;;;;;;3.72;3.05;;;18.80;93.50;;;;;;4969969;28;20039;-94
2021/08/08 05:04:13;;;;;;;3.95;3.58;;;18.80;93.50;;;;;;4975303;28;20101;-95
2021/08/08 05:06:44;;;;;;;3.65;3.30;;;18.90;93.30;;;;;;4974847;28;20042;-95
2021/08/08 05:09:13;;;;;;;3.83;3.47;;;18.90;93.10;;;;;;4975305;28;20478;-94
2021/08/08 05:11:41;;;;;;;3.78;3.38;;;18.90;93.20;;;;;;4959709;28;20067;-95
2021/08/08 05:14:11;;;;;;;4.70;3.67;;;19.00;93.20;;;;;;4975838;28;20089;-94
2021/08/08 05:16:39;;;;;;;3.88;3.50;;;19.00;93.00;;;;;;4968118;28;20030;-93
2021/08/08 05:19:08;;;;;;;4.75;3.95;;;19.00;92.70;;;;;;4975442;28;20039;-94
2021/08/08 05:21:38;;;;;;;4.18;3.60;;;19.00;92.80;;;;;;4959203;28;20126;-94
2021/08/08 05:24:04;;;;;;;3.40;3.10;;;19.00;92.60;;;;;;4974669;28;20074;-94
2021/08/08 05:26:32;;;;;;;3.75;3.45;;;19.00;92.60;;;;;;4967156;28;20066;-93
2021/08/08 05:29:00;;;;;;;3.75;3.45;;;19.00;92.60;;;;;;4971495;28;20039;-93
2021/08/08 05:31:28;;;;;;;4.50;4.10;;;19.10;92.50;;;;;;4963707;28;20031;-94
2021/08/08 05:33:54;;;;;;;3.63;3.28;;;19.10;92.20;;;;;;4967003;28;20050;-94
2021/08/08 05:36:51;;;;;;;3.95;3.55;;;19.20;92.20;;;;;;4959274;28;20032;-94
2021/08/08 05:39:17;;;;;;;4.47;3.72;;;19.20;92.20;;;;;;4970919;28;20462;-95
2021/08/08 05:41:43;;;;;;;4.38;3.53;;;19.30;92.00;;;;;;4957034;28;20043;-95
2021/08/08 05:44:16;;;;;;;3.90;3.50;;;19.40;91.80;;;;;;4963696;28;20134;-95
2021/08/08 05:46:52;;;;;;;;;;;19.40;91.80;;;;;;4974772;28;20497;-95
2021/08/08 05:49:20;;;;;;;4.25;3.40;;;19.40;91.50;;;;;;4975094;28;20363;-94
2021/08/08 05:51:48;;;;;;;4.20;3.78;;;19.30;91.40;;;;;;4975580;28;20054;-95
2021/08/08 05:54:16;;;;;;;4.00;3.67;;;19.40;91.40;;;;;;4974319;28;20042;-95
2021/08/08 05:56:44;;;;;;;4.25;3.50;;;19.40;91.60;;;;;;4967629;28;20038;-95
2021/08/08 05:59:11;;;;;;;3.33;3.03;;;19.50;91.60;;;;;;4974884;28;20041;-94
2021/08/08 06:01:37;;;;;;;4.40;4.00;;;19.60;91.60;;;;;;4966849;28;20470;-95
2021/08/08 06:04:14;;;;;;;4.57;3.80;;;19.70;91.40;;;;;;4967584;28;20043;-94
2021/08/08 06:06:57;;;;;;;;;;;;;;;;;;;;;
2021/08/08 06:09:33;;;;;;;3.60;3.30;;;19.80;91.00;;;;;;4985070;28;20050;-93
2021/08/08 06:12:11;;;;;;;4.43;3.13;;;19.90;90.80;;;;;;4978040;28;20040;-94
2021/08/08 06:14:57;;;;;;;3.45;3.15;;;20.00;90.40;;;;;;4971105;28;20121;-94
2021/08/08 06:17:36;;;;;;;;;;;;;;;;;;;;;
2021/08/08 06:20:04;;;;;;;4.32;3.55;;;20.10;90.40;;;;;;4994851;28;20370;-95
2021/08/08 06:22:38;;;;;;;3.58;3.28;;;20.10;90.40;;;;;;4973869;28;20070;-95
2021/08/08 06:25:06;;;;;;;3.63;3.33;;;20.20;90.40;;;;;;4974837;28;20094;-94
2021/08/08 06:27:53;;;;;;;3.95;3.42;;;20.30;90.50;;;;;;4978119;28;20062;-95
2021/08/08 06:30:36;;;;;;;3.95;3.60;;;20.40;90.20;;;;;;4977848;28;20038;-94
2021/08/08 06:33:15;;;;;;;;;;;;;;;;;;;;;
2021/08/08 06:36:09;;;;;;;4.00;3.70;;;20.40;90.00;;;;;;4998415;28;20034;-95
2021/08/08 06:39:15;;;;;;;3.85;3.47;;;20.40;89.60;;;;;;4991852;28;20038;-95
2021/08/08 06:41:54;;;;;;;5.55;3.90;;;20.40;89.80;;;;;;4981381;28;20062;-95
2021/08/08 06:44:36;;;;;;;;;;;;;;;;;;;;;
2021/08/08 06:47:45;;;;;;;3.78;3.47;;;20.50;89.60;;;;;;4998905;28;20038;-92
2021/08/08 06:50:41;;;;;;;;;;;;;;;;;;;;;
2021/08/08 06:53:37;;;;;;;4.57;3.75;;;20.60;87.20;;;;;;5007131;28;20114;-92
2021/08/08 06:56:13;;;;;;;3.33;3.03;;;20.60;87.10;;;;;;5002009;28;20470;-92
2021/08/08 07:01:45;;;;;;;3.45;3.17;;;20.70;87.50;;;;;;4995320;28;20096;-95
2021/08/08 07:04:11;;;;;;;4.05;3.65;;;20.80;86.20;;;;;;4985330;28;20057;-93
2021/08/08 07:06:51;;;;;;;;;;;;;;;;;;;;;
2021/08/08 07:12:41;;;;;;;3.72;3.40;;;21.00;85.60;;;;;;5003416;28;20042;-94
2021/08/08 07:15:16;;;;;;;3.58;3.28;;;21.10;85.80;;;;;;4981084;28;20073;-94
2021/08/08 07:18:07;;;;;;;4.70;3.55;;;21.10;85.60;;;;;;4989227;28;20042;-93
2021/08/08 07:23:43;;;;;;;4.00;3.03;;;21.20;84.30;;;;;;5002758;28;20044;-94
2021/08/08 07:26:34;;;;;;;3.70;3.17;;;21.30;84.20;;;;;;4970210;28;20042;-92
2021/08/08 07:29:00;;;;;;;2.78;2.58;;;21.40;83.60;;;;;;4978608;28;20039;-94
2021/08/08 07:31:26;;;;;;;3.30;3.00;;;21.50;83.50;;;;;;4981235;28;20030;-95
2021/08/08 07:34:03;;;;;;;3.40;3.10;;;21.60;83.40;;;;;;4998655;28;20040;-93
2021/08/08 07:36:31;;;;;;;3.22;2.92;;;21.70;82.80;;;;;;4996108;28;20034;-94
2021/08/08 07:39:00;;;;;;;3.60;3.30;;;21.80;82.00;;;;;;4984765;28;20069;-93
2021/08/08 07:41:37;;;;;;;2.90;2.67;;;22.00;81.90;;;;;;4984864;28;20041;-93
2021/08/08 07:44:04;;;;;;;2.88;2.67;;;22.10;81.10;;;;;;4977860;28;20293;-94
2021/08/08 07:49:29;;;;;;;3.55;3.20;;;22.20;79.30;;;;;;4993738;28;20097;-94
2021/08/08 07:51:55;;;;;;;4.82;3.22;;;22.20;78.80;;;;;;4975558;28;20035;-96
2021/08/08 07:54:25;;;;;;;3.35;3.05;;;22.20;79.00;;;;;;4983368;28;20042;-94
2021/08/08 07:57:08;;;;;;;2.80;2.60;;;22.20;78.90;;;;;;4983527;28;20039;-94
2021/08/08 07:59:34;;;;;;;3.30;2.90;;;22.40;76.80;;;;;;4980876;28;20092;-96
2021/08/08 08:02:10;;;;;;;3.30;3.00;;;22.40;77.80;;;;;;4970886;28;20273;-94
2021/08/08 08:04:49;;;;;;;;;;;;;;;;;;;;;
2021/08/08 08:07:22;;;;;;;4.75;3.05;;;22.50;76.80;;;;;;4997115;28;20046;-95
2021/08/08 08:10:05;;;;;;;3.33;3.03;;;22.50;76.40;;;;;;4979272;28;20481;-94
2021/08/08 08:13:16;;;;;;;3.03;2.70;;;22.50;75.80;;;;;;4996981;28;20323;-95
2021/08/08 08:15:53;;;;;;;2.47;2.28;;;22.60;76.40;;;;;;4979491;28;20046;-95
2021/08/08 08:18:21;;;;;;;3.45;3.15;;;22.70;76.40;;;;;;4996627;28;20101;-95
2021/08/08 08:20:50;;;;;;;2.78;2.58;;;22.80;75.10;;;;;;4996476;28;20084;-96
2021/08/08 08:23:23;;;;;;;2.92;2.45;;;22.80;75.60;;;;;;4979993;28;20038;-94
2021/08/08 08:25:56;;;;;;;3.00;2.80;;;22.90;74.60;;;;;;4979630;28;20038;-95
2021/08/08 08:28:48;;;;;;;2.92;2.50;;;22.90;74.20;;;;;;4979687;28;20062;-95
2021/08/08 08:31:22;;;;;;;2.92;2.72;;;22.90;73.70;;;;;;4977382;28;20038;-95
2021/08/08 08:33:53;;;;;;;3.85;2.67;;;22.90;73.70;;;;;;4998261;28;20461;-95
2021/08/08 08:36:21;;;;;;;2.40;2.20;;;22.90;73.30;;;;;;4996219;28;20050;-94
2021/08/08 08:39:14;;;;;;;2.70;2.50;;;22.90;73.90;;;;;;4978991;28;20100;-94
2021/08/08 08:42:15;;;;;;;2.92;2.58;;;23.00;73.50;;;;;;4979223;28;20053;-95
2021/08/08 08:44:46;;;;;;;2.70;2.50;;;23.10;72.80;;;;;;4979622;28;20224;-93
2021/08/08 08:47:21;;;;;;;3.55;2.72;;;23.10;72.60;;;;;;5000885;28;20061;-93
2021/08/08 08:49:59;;;;;;;3.17;2.63;;;23.10;73.00;;;;;;4985954;28;20137;-92
2021/08/08 08:52:30;;;;;;;3.53;2.58;;;23.20;71.40;;;;;;4987345;28;20038;-92
2021/08/08 08:55:01;;;;;;;2.80;2.60;;;23.10;71.70;;;;;;4987275;28;20129;-93
2021/08/08 08:57:31;;;;;;;2.50;2.30;;;23.20;72.40;;;;;;4983994;28;20073;-92
2021/08/08 09:00:11;;;;;;;3.17;2.40;;;23.30;72.70;;;;;;4979969;28;20382;-94
2021/08/08 09:02:48;;;;;;;2.92;2.72;;;23.40;72.10;;;;;;4998498;28;20035;-93
2021/08/08 09:05:16;;;;;;;2.97;2.67;;;23.50;72.00;;;;;;4980006;28;20061;-95
2021/08/08 09:07:52;;;;;;;2.50;2.30;;;23.60;72.20;;;;;;4979105;28;20045;-95
2021/08/08 09:10:35;;;;;;;;;;;;;;;;;;;;;
2021/08/08 09:13:05;;;;;;;2.88;2.58;;;23.70;70.60;;;;;;4995776;28;20397;-95
2021/08/08 09:15:35;;;;;;;2.72;2.53;;;23.70;71.30;;;;;;4973659;28;20062;-94
2021/08/08 09:18:59;;;;;;;2.90;2.60;;;23.80;71.10;;;;;;4977364;28;20041;-95
2021/08/08 09:22:26;;;;;;;2.15;2.05;;;23.80;69.70;;;;;;4992116;28;20042;-95
2021/08/08 09:28:30;;;;;;;;;;;;;;;;;;;;;
2021/08/08 09:31:25;;;;;;;2.28;2.08;;;23.90;69.50;;;;;;4994936;28;20042;-94
2021/08/08 09:33:54;;;;;;;2.30;2.10;;;23.90;69.80;;;;;;4961701;28;20034;-95
2021/08/08 09:36:24;;;;;;;2.35;2.15;;;24.10;70.20;;;;;;4995266;28;20105;-95
2021/08/08 09:39:11;;;;;;;;;;;;;;;;;;;;;
2021/08/08 09:41:53;;;;;;;1.98;1.85;;;24.10;69.30;;;;;;4993848;28;20363;-95
2021/08/08 09:47:50;;;;;;;;;;;;;;;;;;;;;
2021/08/08 09:51:15;;;;;;;;;;;;;;;;;;;;;
2021/08/08 09:53:29;;;;;;;2.83;1.85;;;24.40;68.70;;;;;;4950520;28;20098;-94
2021/08/08 09:56:27;;;;;;;;;;;;;;;;;;;;;
2021/08/08 09:59:24;;;;;;;;;;;;;;;;;;;;;
2021/08/08 10:02:08;;;;;;;;;;;;;;;;;;;;;
2021/08/08 10:07:52;;;;;;;1.85;1.75;;;24.80;68.00;;;;;;4931897;28;20043;-93
2021/08/08 10:10:23;;;;;;;1.73;1.60;;;25.00;68.00;;;;;;4940555;29;20542;-94
2021/08/08 10:13:07;;;;;;;2.05;1.83;;;25.10;67.50;;;;;;4954790;28;20038;-92
2021/08/08 10:15:44;;;;;;;2.25;2.05;;;25.00;65.40;;;;;;4991333;28;20038;-93
2021/08/08 10:18:13;;;;;;;2.13;1.73;;;25.00;65.70;;;;;;4982713;28;20484;-92
2021/08/08 10:20:39;;;;;;;1.58;1.48;;;25.10;66.30;;;;;;4978945;28;20070;-92
2021/08/08 10:23:13;;;;;;;1.58;1.48;;;25.10;66.60;;;;;;4975093;28;20038;-93
2021/08/08 10:25:47;;;;;;;1.98;1.80;;;25.10;65.50;;;;;;4984180;28;20069;-93
2021/08/08 10:28:14;;;;;;;1.88;1.77;;;25.00;65.40;;;;;;4978945;28;20041;-94
2021/08/08 10:30:41;;;;;;;1.98;1.77;;;24.90;66.30;;;;;;4980510;28;20039;-94
2021/08/08 10:33:07;;;;;;;1.83;1.70;;;25.00;66.80;;;;;;4977556;28;20058;-94
2021/08/08 10:35:56;;;;;;;2.30;2.10;;;25.00;66.50;;;;;;4977980;28;20030;-94
2021/08/08 10:38:38;;;;;;;1.33;1.23;;;25.00;66.70;;;;;;4993947;28;20035;-92
2021/08/08 10:41:37;;;;;;;;;;;;;;;;;;;;;
2021/08/08 10:44:42;;;;;;;;;;;;;;;;;;;;;
2021/08/08 10:47:08;;;;;;;1.52;1.42;;;25.20;66.20;;;;;;4986576;28;20134;-92
2021/08/08 10:49:44;;;;;;;1.45;1.35;;;25.30;67.00;;;;;;4989701;28;20045;-92
2021/08/08 10:52:18;;;;;;;1.85;1.35;;;25.40;66.80;;;;;;4995106;28;20031;-91
2021/08/08 10:58:49;;;;;;;2.05;1.85;;;25.50;65.70;;;;;;4996344;28;20039;-94
2021/08/08 11:01:39;;;;;;;1.70;1.60;;;25.60;64.90;;;;;;4975121;28;20043;-93
2021/08/08 11:04:35;;;;;;;1.17;1.17;;;25.70;64.60;;;;;;4978433;28;20476;-94
2021/08/08 11:07:46;;;;;;;1.63;1.52;;;25.60;64.70;;;;;;4975877;28;20027;-93
2021/08/08 11:10:31;;;;;;;1.48;1.38;;;25.70;63.90;;;;;;4972477;28;20058;-94
2021/08/08 11:13:26;;;;;;;2.72;1.63;;;25.70;64.90;;;;;;4980249;28;20397;-94
2021/08/08 11:16:09;;;;;;;1.80;1.70;;;25.70;64.90;;;;;;4976358;28;20035;-94
2021/08/08 11:18:45;;;;;;;1.47;1.37;;;25.70;65.10;;;;;;4980627;28;20751;-94
2021/08/08 11:21:19;;;;;;;2.25;1.70;;;25.70;65.30;;;;;;4990837;28;20031;-93
2021/08/08 11:24:54;;;;;;;1.77;1.67;;;25.80;65.70;;;;;;5003022;28;20053;-93
2021/08/08 11:27:43;;;;;;;4.28;1.67;;;25.90;64.40;;;;;;4948557;28;20054;-93
2021/08/08 11:31:12;;;;;;;1.48;1.27;;;26.00;64.20;;;;;;4976642;28;20485;-92
2021/08/08 11:34:00;;;;;;;1.70;1.60;;;26.00;63.00;;;;;;4990428;28;20394;-94
2021/08/08 11:36:59;;;;;;;1.98;1.88;;;25.90;64.10;;;;;;4952211;28;20039;-93
2021/08/08 11:39:38;;;;;;;2.38;2.13;;;25.90;64.30;;;;;;4957703;28;20035;-92
2021/08/08 11:42:08;;;;;;;2.58;1.67;;;26.00;64.10;;;;;;4962279;28;20049;-93
2021/08/08 11:44:56;;;;;;;;;;;;;;;;;;;;;
2021/08/08 11:50:53;;;;;;;;;;;;;;;;;;;;;
2021/08/08 11:56:33;;;;;;;2.30;2.10;;;26.10;64.20;;;;;;4987857;28;20046;-92
2021/08/08 11:59:00;;;;;;;1.75;1.60;;;26.10;64.70;;;;;;4970555;28;20041;-89
2021/08/08 12:01:33;;;;;;;2.08;1.88;;;26.10;64.30;;;;;;4980794;28;20038;-93
2021/08/08 12:04:10;;;;;;;2.38;2.17;;;26.10;64.10;;;;;;4995819;28;20104;-94
2021/08/08 12:13:55;;;;;;;3.92;2.00;;;26.30;63.20;;;;;;4979657;28;20031;-94
2021/08/08 12:17:01;;;;;;;6.15;2.30;;;26.40;63.50;;;;;;4970348;28;20039;-94
2021/08/08 12:26:53;;;;;;;2.03;1.92;;;26.80;61.00;;;;;;4813310;29;20045;-91
2021/08/08 12:30:10;;;;;;;2.08;1.92;;;26.90;60.10;;;;;;4869323;29;20041;-91
2021/08/08 12:32:53;;;;;;;2.45;2.15;;;27.00;60.40;;;;;;4910029;29;20040;-91
2021/08/08 12:51:31;;;;;;;;;;;;;;;;;;;;;
2021/08/08 13:09:26;;;;;;;;;;;;;;;;;;;;;
2021/08/08 13:15:53;;;;;;;1.92;1.60;;;30.50;51.90;;;;;;4772046;30;20042;-94
2021/08/08 13:21:13;;;;;;;2.75;1.80;;;31.00;51.90;;;;;;4850737;29;20071;-93
2021/08/08 13:23:39;;;;;;;1.70;1.60;;;31.40;52.10;;;;;;4951575;29;20130;-92
2021/08/08 13:26:11;;;;;;;1.50;1.33;;;31.70;52.30;;;;;;4954762;29;20036;-92
2021/08/08 13:28:45;;;;;;;2.05;1.65;;;32.00;51.50;;;;;;4955067;29;20094;-91
2021/08/08 13:31:37;;;;;;;2.13;2.00;;;32.30;50.60;;;;;;4960191;29;20039;-93
2021/08/08 14:29:28;;;;;;;2.30;1.60;;;35.60;43.30;;;;;;4989939;28;20110;-94
2021/08/08 14:32:55;;;;;;;1.87;1.77;;;35.80;43.00;;;;;;4968381;28;20039;-94
2021/08/08 14:36:16;;;;;;;1.90;1.80;;;35.90;42.30;;;;;;4984369;28;20280;-92
2021/08/08 20:08:57;;;;;;;;;;;;;;;;;;;;;
2021/08/08 21:41:46;;;;;;;;;;;;;;;;;;;;;
2021/08/08 22:26:47;;;;;;;;;;;;;;;;;;;;;
2021/08/08 23:35:30;;;;;;;;;;;;;;;;;;;;;
